createdAt,value
2023-01-17T00:00:04.783Z,14.80
2023-01-17T00:02:32.897Z,14.00
2023-01-17T00:05:18.260Z,14.30
2023-01-17T00:08:03.448Z,15.30
2023-01-17T00:10:30.065Z,14.60
2023-01-17T00:13:02.961Z,15.20
2023-01-17T00:15:31.190Z,14.00
2023-01-17T00:17:57.856Z,14.00
2023-01-17T00:20:49.550Z,14.70
2023-01-17T00:23:38.674Z,14.10
2023-01-17T00:26:16.120Z,14.70
2023-01-17T00:28:42.815Z,15.00
2023-01-17T00:31:12.736Z,14.90
2023-01-17T00:33:39.705Z,15.00
2023-01-17T00:36:06.975Z,13.70
2023-01-17T00:38:34.993Z,14.00
2023-01-17T00:41:09.527Z,13.80
2023-01-17T00:43:54.865Z,15.10
2023-01-17T00:46:40.551Z,14.10
2023-01-17T00:49:26.205Z,15.00
2023-01-17T00:52:11.648Z,14.20
2023-01-17T00:54:57.014Z,13.90
2023-01-17T00:57:42.241Z,14.60
2023-01-17T01:00:27.956Z,14.30
2023-01-17T01:03:14.832Z,14.40
2023-01-17T01:06:00.128Z,13.60
2023-01-17T01:08:46.944Z,12.40
2023-01-17T01:11:34.229Z,13.00
2023-01-17T01:14:20.336Z,13.10
2023-01-17T01:17:05.547Z,14.70
2023-01-17T01:19:50.961Z,13.00
2023-01-17T01:22:36.233Z,12.80
2023-01-17T01:25:21.709Z,12.30
2023-01-17T01:28:06.901Z,12.70
2023-01-17T01:30:52.250Z,13.40
2023-01-17T01:33:19.109Z,13.40
2023-01-17T01:35:47.607Z,13.00
2023-01-17T01:38:15.085Z,12.40
2023-01-17T01:40:43.600Z,13.10
2023-01-17T01:43:12.394Z,13.00
2023-01-17T01:45:39.868Z,13.30
2023-01-17T01:48:22.116Z,12.80
2023-01-17T01:50:48.970Z,11.90
2023-01-17T01:53:15.618Z,12.50
2023-01-17T01:55:42.594Z,11.70
2023-01-17T01:58:13.063Z,12.80
2023-01-17T02:00:40.253Z,13.10
2023-01-17T02:03:12.758Z,12.90
2023-01-17T02:05:41.811Z,14.40
2023-01-17T02:08:11.366Z,13.10
2023-01-17T02:10:39.337Z,12.90
2023-01-17T02:13:06.344Z,13.10
2023-01-17T02:15:38.537Z,13.00
2023-01-17T02:18:30.435Z,13.20
2023-01-17T02:21:09.405Z,12.70
2023-01-17T02:24:13.639Z,13.20
2023-01-17T02:26:51.998Z,12.50
2023-01-17T02:29:31.717Z,12.90
2023-01-17T02:32:15.718Z,13.50
2023-01-17T02:35:14.601Z,11.70
2023-01-17T02:38:14.859Z,13.00
2023-01-17T02:40:49.559Z,13.20
2023-01-17T02:43:19.151Z,12.30
2023-01-17T02:45:50.522Z,12.40
2023-01-17T02:48:20.867Z,12.80
2023-01-17T02:51:18.347Z,13.20
2023-01-17T02:53:59.859Z,13.50
2023-01-17T02:57:04.528Z,13.30
2023-01-17T02:59:42.487Z,13.30
2023-01-17T03:02:50.550Z,11.90
2023-01-17T03:05:39.531Z,11.90
2023-01-17T03:08:08.519Z,13.40
2023-01-17T03:10:37.469Z,13.80
2023-01-17T03:13:06.400Z,13.10
2023-01-17T03:15:35.862Z,12.60
2023-01-17T03:18:06.512Z,12.70
2023-01-17T03:20:36.552Z,14.70
2023-01-17T03:23:05.804Z,13.20
2023-01-17T03:25:34.767Z,14.70
2023-01-17T03:28:04.751Z,13.80
2023-01-17T03:30:34.329Z,11.90
2023-01-17T03:33:03.642Z,12.20
2023-01-17T03:43:15.199Z,11.90
2023-01-17T03:45:41.990Z,15.00
2023-01-17T03:48:09.089Z,11.50
2023-01-17T03:50:35.896Z,12.50
2023-01-17T03:53:02.775Z,13.10
2023-01-17T03:55:29.496Z,12.90
2023-01-17T03:57:56.469Z,12.40
2023-01-17T04:00:23.373Z,12.70
2023-01-17T04:02:50.411Z,13.40
2023-01-17T04:05:17.311Z,12.40
2023-01-17T04:07:44.064Z,12.20
2023-01-17T04:10:11.040Z,13.50
2023-01-17T04:12:38.327Z,13.00
2023-01-17T04:15:05.898Z,12.40
2023-01-17T04:17:32.819Z,14.30
2023-01-17T04:19:59.688Z,13.10
2023-01-17T04:22:26.401Z,13.20
2023-01-17T04:24:53.095Z,15.30
2023-01-17T04:27:19.994Z,12.40
2023-01-17T04:29:46.961Z,13.10
2023-01-17T04:32:14.922Z,15.10
2023-01-17T04:34:42.168Z,13.80
2023-01-17T04:37:08.927Z,14.30
2023-01-17T04:39:35.835Z,13.70
2023-01-17T04:42:03.124Z,14.90
2023-01-17T04:44:29.931Z,15.10
2023-01-17T04:46:56.778Z,14.40
2023-01-17T04:49:23.543Z,14.00
2023-01-17T04:51:50.465Z,13.60
2023-01-17T04:54:17.309Z,13.60
2023-01-17T04:56:45.081Z,14.40
2023-01-17T04:59:12.231Z,13.10
2023-01-17T05:01:39.336Z,13.90
2023-01-17T05:04:06.443Z,13.80
2023-01-17T05:06:33.382Z,15.70
2023-01-17T05:09:00.157Z,13.40
2023-01-17T05:11:27.056Z,13.50
2023-01-17T05:13:53.994Z,13.40
2023-01-17T05:16:20.849Z,13.90
2023-01-17T05:18:50.652Z,14.20
2023-01-17T05:21:17.506Z,14.10
2023-01-17T05:23:44.253Z,13.30
2023-01-17T05:26:11.026Z,14.00
2023-01-17T05:28:37.928Z,15.00
2023-01-17T05:31:04.846Z,14.80
2023-01-17T05:33:32.033Z,14.40
2023-01-17T05:35:59.215Z,15.50
2023-01-17T05:38:26.018Z,16.20
2023-01-17T05:40:52.832Z,16.20
2023-01-17T05:43:20.806Z,15.60
2023-01-17T05:45:50.130Z,15.70
2023-01-17T05:48:17.000Z,14.90
2023-01-17T05:50:43.816Z,14.80
2023-01-17T05:53:12.563Z,13.70
2023-01-17T05:55:39.859Z,14.00
2023-01-17T05:58:07.318Z,16.70
2023-01-17T06:00:34.097Z,15.30
2023-01-17T06:03:01.323Z,15.90
2023-01-17T06:05:28.339Z,16.30
2023-01-17T06:07:55.097Z,14.80
2023-01-17T06:10:23.786Z,16.10
2023-01-17T06:12:50.649Z,16.40
2023-01-17T06:15:17.988Z,16.60
2023-01-17T06:17:44.763Z,18.10
2023-01-17T06:20:12.298Z,16.50
2023-01-17T06:22:39.124Z,17.00
2023-01-17T06:25:07.821Z,17.50
2023-01-17T06:27:34.658Z,17.20
2023-01-17T06:30:01.527Z,18.00
2023-01-17T06:32:28.377Z,17.70
2023-01-17T06:34:55.396Z,18.70
2023-01-17T06:37:22.210Z,17.50
2023-01-17T06:39:49.298Z,18.20
2023-01-17T06:42:16.434Z,16.90
2023-01-17T06:44:43.416Z,18.40
2023-01-17T06:47:10.200Z,18.20
2023-01-17T06:49:36.934Z,18.80
2023-01-17T06:52:03.824Z,17.10
2023-01-17T06:54:30.629Z,17.50
2023-01-17T06:56:57.441Z,16.40
2023-01-17T06:59:24.497Z,15.90
2023-01-17T07:01:51.527Z,16.60
2023-01-17T07:04:18.439Z,17.50
2023-01-17T07:06:45.378Z,17.10
2023-01-17T07:09:12.579Z,18.50
2023-01-17T07:11:39.473Z,17.00
2023-01-17T07:14:06.258Z,18.10
2023-01-17T07:16:34.168Z,17.90
2023-01-17T07:19:01.054Z,16.60
2023-01-17T07:21:28.083Z,18.30
2023-01-17T07:23:54.967Z,18.70
2023-01-17T07:26:22.256Z,18.50
2023-01-17T07:28:49.116Z,17.20
2023-01-17T07:31:16.463Z,18.40
2023-01-17T07:33:43.529Z,18.90
2023-01-17T07:36:11.229Z,17.40
2023-01-17T07:38:38.050Z,18.80
2023-01-17T07:41:05.192Z,16.80
2023-01-17T07:43:32.230Z,18.50
2023-01-17T07:46:04.572Z,17.90
2023-01-17T07:48:37.603Z,17.50
2023-01-17T07:51:16.477Z,18.80
2023-01-17T07:54:47.728Z,20.10
2023-01-17T07:57:28.953Z,18.40
2023-01-17T08:00:35.638Z,20.70
2023-01-17T08:03:14.007Z,18.30
2023-01-17T10:15:03.257Z,32.70
2023-01-17T10:18:05.021Z,33.30
2023-01-17T10:20:51.828Z,32.90
2023-01-17T10:23:35.587Z,33.50
2023-01-17T10:26:07.995Z,31.50
2023-01-17T10:28:46.530Z,30.80
2023-01-17T10:31:22.142Z,30.40
2023-01-17T10:33:56.106Z,32.50
2023-01-17T10:36:24.938Z,31.00
2023-01-17T10:38:56.460Z,33.60
2023-01-17T10:41:28.124Z,32.20
2023-01-17T10:44:18.418Z,33.20
2023-01-17T10:46:51.126Z,36.60
2023-01-17T10:49:19.635Z,34.00
2023-01-17T10:51:59.268Z,32.50
2023-01-17T10:54:28.646Z,33.30
2023-01-17T10:56:55.210Z,33.20
2023-01-17T10:59:29.973Z,34.30
2023-01-17T11:02:00.163Z,32.90
2023-01-17T11:04:37.545Z,32.00
2023-01-17T11:07:14.520Z,33.20
2023-01-17T11:09:46.036Z,30.80
2023-01-17T11:12:28.837Z,31.80
2023-01-17T11:15:05.653Z,31.20
2023-01-17T11:17:33.495Z,31.60
2023-01-17T11:20:07.774Z,32.00
2023-01-17T11:22:37.221Z,33.70
2023-01-17T11:25:04.788Z,33.20
2023-01-17T11:27:37.597Z,31.70
2023-01-17T11:30:16.398Z,32.00
2023-01-17T11:32:56.948Z,31.60
2023-01-17T11:43:18.787Z,34.70
2023-01-17T11:45:46.811Z,34.00
2023-01-17T11:48:16.208Z,34.10
2023-01-17T11:50:59.433Z,34.00
2023-01-17T11:53:34.585Z,33.00
2023-01-17T11:56:12.604Z,33.20
2023-01-17T11:58:41.425Z,30.30
2023-01-17T12:01:27.582Z,32.00
2023-01-17T12:03:59.498Z,30.40
2023-01-17T12:06:56.769Z,31.30
2023-01-17T12:09:42.855Z,31.70
2023-01-17T12:12:40.022Z,32.60
2023-01-17T12:15:39.995Z,33.80
2023-01-17T12:18:25.839Z,34.20
2023-01-17T12:20:59.031Z,34.40
2023-01-17T12:23:51.315Z,33.00
2023-01-17T12:26:44.431Z,35.40
2023-01-17T12:29:42.338Z,35.10
2023-01-17T12:32:23.393Z,34.30
2023-01-17T12:34:52.779Z,36.00
2023-01-17T12:37:40.212Z,36.00
2023-01-17T12:40:13.196Z,33.50
2023-01-17T12:42:48.114Z,33.90
2023-01-17T12:45:28.667Z,33.80
2023-01-17T12:47:59.944Z,33.90
2023-01-17T12:50:41.619Z,32.80
2023-01-17T12:53:35.403Z,36.70
2023-01-17T12:56:08.526Z,33.10
2023-01-17T12:58:39.858Z,33.60
2023-01-17T13:01:18.935Z,34.20
2023-01-17T13:04:00.472Z,33.40
2023-01-17T13:06:51.063Z,33.80
2023-01-17T13:09:19.604Z,34.10
2023-01-17T13:11:58.025Z,32.50
2023-01-17T13:14:24.905Z,33.10
2023-01-17T13:16:59.109Z,35.60
2023-01-17T13:19:48.082Z,35.60
2023-01-17T13:22:19.447Z,35.20
2023-01-17T13:24:50.776Z,33.90
2023-01-17T13:27:43.838Z,35.00
2023-01-17T13:30:15.491Z,33.70
2023-01-17T13:32:51.432Z,35.50
2023-01-17T13:35:58.332Z,34.60
2023-01-17T13:38:25.489Z,32.90
2023-01-17T13:41:03.831Z,36.50
2023-01-17T13:43:34.269Z,34.60
2023-01-17T13:46:03.380Z,33.10
2023-01-17T13:48:41.157Z,35.70
2023-01-17T13:51:08.892Z,35.30
2023-01-17T13:53:35.627Z,36.00
2023-01-17T13:56:15.993Z,34.80
2023-01-17T13:58:54.607Z,38.80
2023-01-17T14:01:24.618Z,36.90
2023-01-17T14:03:54.535Z,36.50
2023-01-17T14:06:35.406Z,35.90
2023-01-17T16:15:13.492Z,50.30
2023-01-17T16:17:44.987Z,47.90
2023-01-17T16:20:18.699Z,48.50
2023-01-17T16:22:46.403Z,50.70
2023-01-17T16:25:16.314Z,48.60
2023-01-17T16:27:44.434Z,46.80
2023-01-17T16:30:16.198Z,45.00
2023-01-17T16:32:46.342Z,44.20
2023-01-17T16:35:23.951Z,45.10
2023-01-17T16:37:55.041Z,41.60
2023-01-17T16:40:23.501Z,45.40
2023-01-17T16:42:50.301Z,42.70
2023-01-17T16:45:17.372Z,42.00
2023-01-17T16:47:47.382Z,46.70
2023-01-17T16:50:15.671Z,43.40
2023-01-17T16:52:42.222Z,43.90
2023-01-17T16:55:11.773Z,41.50
2023-01-17T16:57:38.651Z,41.90
2023-01-17T17:00:06.109Z,44.40
2023-01-17T17:02:33.217Z,43.70
2023-01-17T17:04:59.996Z,44.30
2023-01-17T17:07:26.642Z,41.90
2023-01-17T17:09:53.289Z,41.90
2023-01-17T17:12:20.431Z,40.00
2023-01-17T17:14:47.478Z,43.10
2023-01-17T17:17:14.858Z,42.60
2023-01-17T17:19:42.290Z,41.00
2023-01-17T17:22:09.788Z,41.50
2023-01-17T17:24:36.894Z,39.60
2023-01-17T17:27:04.043Z,42.10
2023-01-17T17:29:30.906Z,43.10
2023-01-17T17:31:58.648Z,42.10
2023-01-17T17:34:27.162Z,42.80
2023-01-17T17:36:53.876Z,39.20
2023-01-17T17:39:22.357Z,41.40
2023-01-17T17:41:49.097Z,39.60
2023-01-17T17:44:16.731Z,45.30
2023-01-17T17:46:44.182Z,40.50
2023-01-17T17:49:11.064Z,40.00
2023-01-17T17:51:38.703Z,39.10
2023-01-17T17:54:10.590Z,41.40
2023-01-17T17:56:38.341Z,37.90
2023-01-17T17:59:06.631Z,39.50
2023-01-17T18:01:37.577Z,39.50
2023-01-17T18:06:34.632Z,35.50
2023-01-17T18:09:02.490Z,35.20
2023-01-17T18:11:29.666Z,35.70
2023-01-17T18:13:58.672Z,34.00
2023-01-17T18:16:28.024Z,34.20
2023-01-17T18:18:55.929Z,35.00
2023-01-17T18:21:24.580Z,34.60
2023-01-17T18:23:54.242Z,35.40
2023-01-17T18:26:31.405Z,36.40
2023-01-17T18:28:58.708Z,34.50
2023-01-17T18:31:27.103Z,35.00
2023-01-17T18:33:55.000Z,32.90
2023-01-17T18:36:23.074Z,35.60
2023-01-17T18:38:49.822Z,34.40
2023-01-17T18:41:18.610Z,32.70
2023-01-17T18:43:45.952Z,34.20
2023-01-17T18:46:14.520Z,32.80
2023-01-17T18:48:41.689Z,33.40
2023-01-17T18:51:10.679Z,35.50
2023-01-17T18:53:38.167Z,32.10
2023-01-17T18:56:07.165Z,33.40
2023-01-17T18:58:38.919Z,33.60
2023-01-17T19:01:28.927Z,34.10
2023-01-17T19:03:59.671Z,34.10
2023-01-17T19:06:29.670Z,36.20
2023-01-17T19:08:59.965Z,33.20
